C104 KDCA-KTUL
Flight info
| Callsign | C104 |
|---|---|
| Flight time | N/A |
| Altitude | 43000 |
| Route | REBLL5 OTTTO Q68 HVQ J8 IIU J78 FAM J98 SGF VINTA3 |
| Aircraft | GA7C/M-SBDE2E3FGHIJ4J5M1RWXY/LB1D1 |
Departure
| Time | 2026-04-30 21:40 |
|---|---|
| Airport | Ronald Reagan Washington National Airport (KDCA) |
Arrival
| Time | N/A |
|---|---|
| Airport | Tulsa International Airport (KTUL) |
| Time | Latitude | Longitude | Altitude | Speed | Heading |
|---|---|---|---|---|---|
| 2026-04-30 21:15 | 38.84594 | -77.04664 | 20 ft | 0 kts | 321° |
| 2026-04-30 21:29 | 38.84595 | -77.04664 | 19 ft | 0 kts | 331° |
| 2026-04-30 21:30 | 38.84598 | -77.04664 | 20 ft | 2 kts | 356° |
| 2026-04-30 21:31 | 38.84593 | -77.04360 | 19 ft | 12 kts | 145° |
| 2026-04-30 21:31 | 38.84568 | -77.04240 | 20 ft | 5 kts | 72° |
| 2026-04-30 21:32 | 38.84545 | -77.04138 | 22 ft | 12 kts | 160° |
| 2026-04-30 21:32 | 38.84436 | -77.04116 | 23 ft | 18 kts | 173° |
| 2026-04-30 21:32 | 38.84369 | -77.04066 | 21 ft | 9 kts | 83° |
| 2026-04-30 21:32 | 38.84349 | -77.03973 | 23 ft | 15 kts | 116° |
| 2026-04-30 21:33 | 38.84301 | -77.03865 | 23 ft | 13 kts | 120° |
| 2026-04-30 21:33 | 38.84219 | -77.03799 | 18 ft | 0 kts | 130° |
| 2026-04-30 21:35 | 38.84214 | -77.03801 | 18 ft | 1 kts | 184° |
| 2026-04-30 21:35 | 38.84180 | -77.03807 | 19 ft | 8 kts | 157° |
| 2026-04-30 21:35 | 38.84178 | -77.03786 | 18 ft | 0 kts | 79° |
| 2026-04-30 21:37 | 38.84180 | -77.03741 | 20 ft | 9 kts | 89° |
| 2026-04-30 21:38 | 38.84212 | -77.03682 | 19 ft | 3 kts | 0° |
| 2026-04-30 21:39 | 38.84236 | -77.03685 | 17 ft | 10 kts | 354° |
| 2026-04-30 21:39 | 38.84434 | -77.03709 | 20 ft | 51 kts | 354° |
| 2026-04-30 21:39 | 38.84940 | -77.03764 | 18 ft | 94 kts | 356° |
| 2026-04-30 21:40 | 38.85714 | -77.03849 | 23 ft | 128 kts | 353° |
| 2026-04-30 21:40 | 38.86590 | -77.04006 | 326 ft | 124 kts | 345° |
| 2026-04-30 21:40 | 38.87482 | -77.04146 | 532 ft | 138 kts | 335° |
| 2026-04-30 21:40 | 38.88091 | -77.05096 | 667 ft | 152 kts | 279° |
| 2026-04-30 21:41 | 38.88117 | -77.06518 | 1008 ft | 171 kts | 260° |
| 2026-04-30 21:41 | 38.87935 | -77.08001 | 1681 ft | 162 kts | 270° |
| 2026-04-30 21:41 | 38.88343 | -77.09299 | 2234 ft | 165 kts | 312° |
| 2026-04-30 21:41 | 38.89396 | -77.09941 | 2744 ft | 170 kts | 339° |
| 2026-04-30 21:42 | 38.90460 | -77.10553 | 3355 ft | 168 kts | 322° |
| 2026-04-30 21:42 | 38.91387 | -77.11481 | 3831 ft | 173 kts | 328° |
| 2026-04-30 21:42 | 38.92515 | -77.12024 | 4388 ft | 173 kts | 339° |
| 2026-04-30 21:42 | 38.93671 | -77.12487 | 4887 ft | 175 kts | 332° |
| 2026-04-30 21:43 | 38.94725 | -77.13242 | 5395 ft | 174 kts | 324° |
| 2026-04-30 21:43 | 38.95748 | -77.14083 | 5875 ft | 175 kts | 317° |
| 2026-04-30 21:43 | 38.96497 | -77.15285 | 6353 ft | 173 kts | 299° |
| 2026-04-30 21:43 | 38.96951 | -77.16719 | 6830 ft | 175 kts | 282° |
| 2026-04-30 21:44 | 38.97160 | -77.18261 | 7295 ft | 177 kts | 282° |
| 2026-04-30 21:44 | 38.97429 | -77.19807 | 7767 ft | 178 kts | 281° |
| 2026-04-30 21:44 | 38.97656 | -77.21372 | 8219 ft | 180 kts | 280° |
| 2026-04-30 21:44 | 38.97893 | -77.22957 | 8674 ft | 181 kts | 281° |
| 2026-04-30 21:45 | 38.98132 | -77.24550 | 9121 ft | 183 kts | 280° |
| 2026-04-30 21:45 | 38.98369 | -77.26157 | 9565 ft | 183 kts | 280° |
| 2026-04-30 21:45 | 38.98389 | -77.27784 | 10025 ft | 183 kts | 261° |
| 2026-04-30 21:45 | 38.98045 | -77.29345 | 10489 ft | 183 kts | 249° |
| 2026-04-30 21:46 | 38.97550 | -77.30847 | 10930 ft | 182 kts | 250° |
| 2026-04-30 21:46 | 38.97091 | -77.32351 | 11394 ft | 181 kts | 249° |
| 2026-04-30 21:46 | 38.96611 | -77.33842 | 11833 ft | 180 kts | 249° |
| 2026-04-30 21:46 | 38.96138 | -77.35326 | 12283 ft | 179 kts | 249° |
| 2026-04-30 21:47 | 38.95666 | -77.36796 | 12739 ft | 178 kts | 249° |
| 2026-04-30 21:47 | 38.95199 | -77.38295 | 13292 ft | 185 kts | 251° |
| 2026-04-30 21:47 | 38.94734 | -77.39808 | 14466 ft | 180 kts | 250° |
| 2026-04-30 21:47 | 38.94255 | -77.41297 | 15474 ft | 188 kts | 250° |
| 2026-04-30 21:48 | 38.93706 | -77.43042 | 15571 ft | 238 kts | 250° |
| 2026-04-30 21:48 | 38.93067 | -77.45010 | 16839 ft | 230 kts | 250° |
| 2026-04-30 21:48 | 38.92465 | -77.46883 | 18238 ft | 230 kts | 250° |
| 2026-04-30 21:48 | 38.91854 | -77.48797 | 19294 ft | 234 kts | 250° |
| 2026-04-30 21:49 | 38.91230 | -77.50741 | 20368 ft | 238 kts | 250° |
| 2026-04-30 21:49 | 38.90592 | -77.52720 | 21370 ft | 243 kts | 250° |
| 2026-04-30 21:49 | 38.89946 | -77.54732 | 22346 ft | 246 kts | 250° |
| 2026-04-30 21:49 | 38.89287 | -77.56781 | 23281 ft | 250 kts | 251° |
| 2026-04-30 21:50 | 38.88772 | -77.58919 | 24175 ft | 254 kts | 258° |
| 2026-04-30 21:50 | 38.88456 | -77.61162 | 25032 ft | 259 kts | 261° |
| 2026-04-30 21:50 | 38.88124 | -77.63447 | 25874 ft | 263 kts | 260° |
| 2026-04-30 21:50 | 38.87789 | -77.65766 | 26711 ft | 266 kts | 260° |
| 2026-04-30 21:51 | 38.87456 | -77.68117 | 27518 ft | 270 kts | 260° |
| 2026-04-30 21:51 | 38.87119 | -77.70502 | 28295 ft | 274 kts | 260° |
| 2026-04-30 21:51 | 38.86773 | -77.72921 | 29047 ft | 278 kts | 260° |
| 2026-04-30 21:51 | 38.86424 | -77.75363 | 29809 ft | 281 kts | 260° |
| 2026-04-30 21:52 | 38.86068 | -77.77844 | 30514 ft | 285 kts | 260° |
| 2026-04-30 21:52 | 38.85709 | -77.80354 | 31186 ft | 289 kts | 260° |
| 2026-04-30 21:52 | 38.85342 | -77.82905 | 31849 ft | 293 kts | 260° |
| 2026-04-30 21:52 | 38.84970 | -77.85491 | 32479 ft | 298 kts | 260° |
| 2026-04-30 21:53 | 38.84641 | -77.88125 | 33096 ft | 302 kts | 264° |
| 2026-04-30 21:53 | 38.84590 | -77.90831 | 33685 ft | 307 kts | 271° |
| 2026-04-30 21:53 | 38.84687 | -77.93580 | 34258 ft | 311 kts | 270° |
| 2026-04-30 21:53 | 38.84756 | -77.96365 | 34822 ft | 315 kts | 270° |
| 2026-04-30 21:54 | 38.84834 | -77.99185 | 35387 ft | 319 kts | 270° |
| 2026-04-30 21:54 | 38.84922 | -78.02042 | 35940 ft | 323 kts | 271° |
| 2026-04-30 21:54 | 38.85006 | -78.04923 | 36534 ft | 325 kts | 271° |
| 2026-04-30 21:54 | 38.85088 | -78.07839 | 37020 ft | 330 kts | 271° |
| 2026-04-30 21:55 | 38.85172 | -78.10786 | 37579 ft | 333 kts | 271° |
| 2026-04-30 21:55 | 38.85254 | -78.13756 | 38123 ft | 335 kts | 271° |
| 2026-04-30 21:55 | 38.85337 | -78.16744 | 38609 ft | 338 kts | 270° |
| 2026-04-30 21:55 | 38.85422 | -78.19767 | 39060 ft | 342 kts | 270° |
| 2026-04-30 21:56 | 38.85436 | -78.22837 | 39483 ft | 346 kts | 268° |
| 2026-04-30 21:56 | 38.85413 | -78.25943 | 39902 ft | 351 kts | 269° |
| 2026-04-30 21:56 | 38.85405 | -78.29087 | 40313 ft | 356 kts | 269° |
| 2026-04-30 21:56 | 38.85395 | -78.32275 | 40708 ft | 361 kts | 269° |
| 2026-04-30 21:57 | 38.85373 | -78.35504 | 41082 ft | 365 kts | 268° |
| 2026-04-30 21:57 | 38.85128 | -78.38750 | 41478 ft | 368 kts | 261° |
| 2026-04-30 21:57 | 38.84618 | -78.41984 | 41860 ft | 373 kts | 259° |
| 2026-04-30 21:57 | 38.84081 | -78.45247 | 42227 ft | 377 kts | 259° |
| 2026-04-30 21:58 | 38.83550 | -78.48559 | 42553 ft | 382 kts | 259° |
| 2026-04-30 21:58 | 38.83002 | -78.51901 | 42943 ft | 386 kts | 259° |
| 2026-04-30 21:58 | 38.82433 | -78.55327 | 42945 ft | 400 kts | 259° |
| 2026-04-30 21:58 | 38.81848 | -78.58871 | 42959 ft | 414 kts | 259° |
| 2026-04-30 21:59 | 38.81246 | -78.62540 | 42961 ft | 428 kts | 259° |
| 2026-04-30 21:59 | 38.80617 | -78.66336 | 42960 ft | 442 kts | 259° |
| 2026-04-30 21:59 | 38.79968 | -78.70237 | 42972 ft | 456 kts | 259° |
| 2026-04-30 22:00 | 38.78608 | -78.78409 | 42966 ft | 483 kts | 259° |
| 2026-04-30 22:00 | 38.77170 | -78.87010 | 42967 ft | 498 kts | 259° |
| 2026-04-30 22:00 | 38.76444 | -78.91334 | 42955 ft | 496 kts | 259° |
| 2026-04-30 22:01 | 38.74997 | -78.99917 | 42955 ft | 492 kts | 259° |
| 2026-04-30 22:01 | 38.73560 | -79.08411 | 42965 ft | 484 kts | 259° |
| 2026-04-30 22:02 | 38.72145 | -79.16730 | 42954 ft | 473 kts | 259° |
| 2026-04-30 22:02 | 38.70754 | -79.24858 | 42968 ft | 467 kts | 259° |
| 2026-04-30 22:03 | 38.69418 | -79.32999 | 42968 ft | 469 kts | 259° |
| 2026-04-30 22:03 | 38.68071 | -79.41174 | 42980 ft | 471 kts | 259° |
| 2026-04-30 22:04 | 38.66709 | -79.49379 | 42987 ft | 473 kts | 259° |
| 2026-04-30 22:05 | 38.64647 | -79.61745 | 42990 ft | 476 kts | 259° |
| 2026-04-30 22:05 | 38.63260 | -79.70019 | 42992 ft | 477 kts | 259° |
| 2026-04-30 22:06 | 38.61772 | -79.78281 | 43004 ft | 477 kts | 258° |
| 2026-04-30 22:06 | 38.59579 | -79.90528 | 43013 ft | 467 kts | 258° |
| 2026-04-30 22:07 | 38.58117 | -79.98548 | 43012 ft | 461 kts | 258° |
| 2026-04-30 22:07 | 38.56683 | -80.06474 | 43010 ft | 456 kts | 258° |
| 2026-04-30 22:08 | 38.55733 | -80.14388 | 43012 ft | 449 kts | 267° |
| 2026-04-30 22:08 | 38.55928 | -80.22285 | 43011 ft | 443 kts | 273° |
| 2026-04-30 22:09 | 38.56308 | -80.30085 | 43013 ft | 438 kts | 273° |
| 2026-04-30 22:09 | 38.56706 | -80.37791 | 43022 ft | 433 kts | 273° |
| 2026-04-30 22:10 | 38.57081 | -80.45413 | 43019 ft | 428 kts | 273° |
| 2026-04-30 22:10 | 38.57452 | -80.52949 | 43028 ft | 424 kts | 273° |
| 2026-04-30 22:11 | 38.57219 | -80.64089 | 43028 ft | 417 kts | 261° |
| 2026-04-30 22:12 | 38.55890 | -80.71253 | 43029 ft | 413 kts | 258° |
| 2026-04-30 22:12 | 38.54540 | -80.78329 | 43031 ft | 409 kts | 258° |
| 2026-04-30 22:13 | 38.53177 | -80.85316 | 43029 ft | 404 kts | 258° |
| 2026-04-30 22:13 | 38.51834 | -80.92227 | 43028 ft | 400 kts | 258° |
| 2026-04-30 22:14 | 38.50501 | -80.99054 | 43032 ft | 395 kts | 258° |
| 2026-04-30 22:14 | 38.49180 | -81.05800 | 43027 ft | 390 kts | 258° |
| 2026-04-30 22:15 | 38.47870 | -81.12464 | 43031 ft | 385 kts | 258° |
| 2026-04-30 22:15 | 38.46573 | -81.19043 | 43028 ft | 381 kts | 258° |
| 2026-04-30 22:16 | 38.45288 | -81.25537 | 43027 ft | 376 kts | 258° |
| 2026-04-30 22:17 | 38.42762 | -81.38249 | 43037 ft | 366 kts | 258° |
| 2026-04-30 22:17 | 38.40902 | -81.47559 | 43041 ft | 358 kts | 258° |
| 2026-04-30 22:18 | 38.39077 | -81.56654 | 43036 ft | 350 kts | 258° |
| 2026-04-30 22:19 | 38.37287 | -81.65539 | 43037 ft | 342 kts | 258° |
| 2026-04-30 22:20 | 38.35533 | -81.74202 | 43036 ft | 333 kts | 258° |
| 2026-04-30 22:20 | 38.34891 | -81.79933 | 42999 ft | 325 kts | 271° |
| 2026-04-30 22:20 | 38.35104 | -81.82795 | 42828 ft | 327 kts | 279° |
| 2026-04-30 22:21 | 38.35600 | -81.85636 | 42539 ft | 333 kts | 281° |
| 2026-04-30 22:21 | 38.36151 | -81.88524 | 42256 ft | 339 kts | 282° |